Time;durP1;ratioP1;P1;durP2;ratioP2;P2;SDS_P1;SDS_P2;PMS_P1;PMS_P2;Temp;Humidity;BMP_temperature;BMP_pressure;BME280_temperature;BME280_humidity;BME280_pressure;Samples;Min_cycle;Max_cycle;Signal;HPM_P1;HPM_P2
2023/12/27 00:00:25;;;;;;;7.18;3.38;;;-0.50;99.90;;;;;;5030344;28;20282;-88
2023/12/27 00:02:52;;;;;;;9.57;4.00;;;-0.50;99.90;;;;;;5030279;28;20188;-86
2023/12/27 00:05:20;;;;;;;7.78;3.67;;;-0.50;99.90;;;;;;5031420;28;20194;-87
2023/12/27 00:07:47;;;;;;;7.30;3.17;;;-0.50;99.90;;;;;;5030289;28;20193;-87
2023/12/27 00:10:15;;;;;;;9.85;4.32;;;-0.50;99.90;;;;;;5031465;28;20295;-87
2023/12/27 00:12:43;;;;;;;9.55;3.92;;;-0.40;99.90;;;;;;5030073;28;20226;-85
2023/12/27 00:15:10;;;;;;;7.95;3.85;;;-0.50;99.90;;;;;;5025240;28;20256;-87
2023/12/27 00:17:38;;;;;;;10.52;3.42;;;-0.50;99.90;;;;;;5046328;28;20656;-87
2023/12/27 00:20:06;;;;;;;7.93;3.53;;;-0.50;99.90;;;;;;5046108;28;20223;-85
2023/12/27 00:22:34;;;;;;;6.45;3.20;;;-0.50;99.90;;;;;;5029693;28;20567;-85
2023/12/27 00:25:02;;;;;;;11.48;3.80;;;-0.50;99.90;;;;;;5046251;28;20186;-86
2023/12/27 00:27:29;;;;;;;8.73;3.38;;;-0.50;99.90;;;;;;5030922;28;20228;-88
2023/12/27 00:29:57;;;;;;;5.95;3.08;;;-0.50;99.90;;;;;;5046344;28;20300;-88
2023/12/27 00:32:24;;;;;;;7.55;3.17;;;-0.50;99.90;;;;;;5031341;28;20194;-87
2023/12/27 00:34:52;;;;;;;11.55;3.42;;;-0.50;99.90;;;;;;5030752;28;20236;-87
2023/12/27 00:37:20;;;;;;;9.32;3.53;;;-0.50;99.90;;;;;;5045936;28;20186;-87
2023/12/27 00:39:48;;;;;;;10.60;3.78;;;-0.40;99.90;;;;;;5038680;28;20181;-87
2023/12/27 00:42:16;;;;;;;6.20;2.75;;;-0.40;99.90;;;;;;5049468;28;20189;-86
2023/12/27 00:44:43;;;;;;;7.32;2.85;;;-0.40;99.90;;;;;;5050410;28;20280;-86
2023/12/27 00:47:12;;;;;;;8.35;3.45;;;-0.40;99.90;;;;;;5049009;28;20204;-88
2023/12/27 00:49:40;;;;;;;7.60;3.15;;;-0.40;99.90;;;;;;5049468;28;20217;-87
2023/12/27 00:52:10;;;;;;;9.88;3.45;;;-0.40;99.90;;;;;;5050430;28;20189;-87
2023/12/27 00:54:38;;;;;;;7.97;2.95;;;-0.40;99.90;;;;;;5050274;28;20323;-86
2023/12/27 00:57:07;;;;;;;6.63;3.05;;;-0.40;99.90;;;;;;5049166;28;20177;-85
2023/12/27 00:59:34;;;;;;;6.38;3.45;;;-0.40;99.90;;;;;;5048911;28;20193;-88
2023/12/27 01:02:02;;;;;;;8.93;3.10;;;-0.40;99.90;;;;;;5049216;28;20181;-88
2023/12/27 01:04:32;;;;;;;7.35;3.13;;;-0.40;99.90;;;;;;5048942;28;20557;-86
2023/12/27 01:07:00;;;;;;;8.35;3.20;;;-0.50;99.90;;;;;;5048761;28;20193;-85
2023/12/27 01:09:27;;;;;;;7.20;2.67;;;-0.60;99.90;;;;;;5050081;28;20291;-86
2023/12/27 01:11:55;;;;;;;10.80;3.08;;;-0.60;99.90;;;;;;5049960;28;20308;-86
2023/12/27 01:14:23;;;;;;;6.88;2.85;;;-0.60;99.90;;;;;;5048453;28;20193;-87
2023/12/27 01:16:51;;;;;;;11.45;3.50;;;-0.60;99.90;;;;;;5048440;28;20188;-88
2023/12/27 01:19:19;;;;;;;10.93;3.90;;;-0.60;99.90;;;;;;5031998;28;20185;-88
2023/12/27 01:21:47;;;;;;;11.55;3.17;;;-0.70;99.90;;;;;;5048077;28;20197;-86
2023/12/27 01:24:14;;;;;;;9.13;3.38;;;-0.70;99.90;;;;;;5049869;28;20177;-86
2023/12/27 01:26:42;;;;;;;11.40;3.95;;;-0.70;99.90;;;;;;5049780;28;20267;-85
2023/12/27 01:29:09;;;;;;;14.23;4.25;;;-0.70;99.90;;;;;;5048398;28;20195;-87
2023/12/27 01:31:37;;;;;;;10.52;3.67;;;-0.70;99.90;;;;;;5048688;28;20200;-87
2023/12/27 01:34:05;;;;;;;9.73;3.85;;;-0.70;99.90;;;;;;5048457;28;20292;-87
2023/12/27 01:36:45;;;;;;;10.05;3.97;;;-0.70;99.90;;;;;;5049631;28;20180;-87
2023/12/27 01:39:13;;;;;;;7.75;3.25;;;-0.70;99.90;;;;;;5048173;28;20194;-89
2023/12/27 01:41:42;;;;;;;11.23;3.78;;;-0.70;99.90;;;;;;5048000;28;20272;-86
2023/12/27 01:44:10;;;;;;;11.35;3.60;;;-0.70;99.90;;;;;;5064670;28;20191;-86
2023/12/27 01:46:38;;;;;;;8.60;3.33;;;-0.70;99.90;;;;;;5064951;28;20259;-86
2023/12/27 01:49:06;;;;;;;9.02;3.50;;;-0.70;99.90;;;;;;5047881;28;20189;-88
2023/12/27 01:51:34;;;;;;;11.10;4.18;;;-0.70;99.90;;;;;;5047893;28;20600;-87
2023/12/27 01:54:02;;;;;;;8.88;3.90;;;-0.80;99.90;;;;;;5049337;28;20212;-86
2023/12/27 01:56:30;;;;;;;12.45;4.20;;;-0.80;99.90;;;;;;5047609;28;20185;-86
2023/12/27 01:58:58;;;;;;;12.88;4.15;;;-0.80;99.90;;;;;;5047911;28;20193;-87
2023/12/27 02:01:27;;;;;;;11.43;4.40;;;-0.70;99.90;;;;;;5065133;28;21101;-88
2023/12/27 02:03:55;;;;;;;10.20;4.22;;;-0.70;99.90;;;;;;5032758;28;20212;-87
2023/12/27 02:06:23;;;;;;;16.05;4.97;;;-0.70;99.90;;;;;;5032848;28;20186;-87
2023/12/27 02:08:51;;;;;;;12.32;4.35;;;-0.70;99.90;;;;;;5045564;28;20556;-86
2023/12/27 02:11:18;;;;;;;11.02;4.22;;;-0.70;99.90;;;;;;5044259;28;20242;-88
2023/12/27 02:13:46;;;;;;;12.85;4.93;;;-0.60;99.90;;;;;;5027937;28;20272;-86
2023/12/27 02:16:14;;;;;;;22.35;6.55;;;-0.60;99.90;;;;;;5033870;28;20692;-87
2023/12/27 02:18:42;;;;;;;14.32;5.40;;;-0.60;99.90;;;;;;5053696;28;20193;-86
2023/12/27 02:21:09;;;;;;;12.93;4.78;;;-0.60;99.90;;;;;;5033210;28;20656;-87
2023/12/27 02:23:39;;;;;;;24.08;6.35;;;-0.60;99.90;;;;;;5045092;28;20856;-87
2023/12/27 02:26:07;;;;;;;27.75;6.10;;;-0.60;99.90;;;;;;5056336;28;20212;-87
2023/12/27 02:28:34;;;;;;;15.23;5.60;;;-0.60;99.90;;;;;;5047952;28;20922;-86
2023/12/27 02:31:02;;;;;;;17.73;6.35;;;-0.60;99.90;;;;;;5047628;28;20346;-87
2023/12/27 02:33:30;;;;;;;20.67;5.75;;;-0.60;99.90;;;;;;5039004;28;20623;-87
2023/12/27 02:35:58;;;;;;;18.42;6.35;;;-0.60;99.90;;;;;;5044226;28;20193;-88
2023/12/27 02:38:26;;;;;;;12.45;5.32;;;-0.60;99.90;;;;;;5044388;28;20194;-87
2023/12/27 02:40:55;;;;;;;10.77;5.30;;;-0.60;99.90;;;;;;5027731;28;20582;-86
2023/12/27 02:43:23;;;;;;;12.88;4.50;;;-0.50;99.90;;;;;;5044545;28;20186;-87
2023/12/27 02:45:50;;;;;;;13.45;4.75;;;-0.50;99.90;;;;;;5029518;28;20196;-89
2023/12/27 02:48:18;;;;;;;11.20;5.05;;;-0.50;99.90;;;;;;5027896;28;20197;-86
2023/12/27 02:50:46;;;;;;;12.10;4.72;;;-0.50;99.90;;;;;;5027794;28;20221;-87
2023/12/27 02:53:13;;;;;;;8.30;4.25;;;-0.50;99.90;;;;;;5044395;28;20723;-86
2023/12/27 02:55:41;;;;;;;11.23;3.83;;;-0.50;99.90;;;;;;5027360;28;20205;-85
2023/12/27 02:58:08;;;;;;;8.00;4.00;;;-0.50;99.90;;;;;;5028915;28;20843;-87
2023/12/27 03:00:37;;;;;;;10.30;3.97;;;-0.50;99.90;;;;;;5044021;28;20208;-87
2023/12/27 03:03:05;;;;;;;10.50;4.22;;;-0.50;99.90;;;;;;5027332;28;20256;-86
2023/12/27 03:05:33;;;;;;;10.93;4.18;;;-0.40;99.90;;;;;;5027390;28;20668;-86
2023/12/27 03:08:00;;;;;;;10.23;3.50;;;-0.40;99.90;;;;;;5031048;28;20190;-86
2023/12/27 03:10:28;;;;;;;8.38;3.78;;;-0.40;99.90;;;;;;5031199;28;20233;-85
2023/12/27 03:12:55;;;;;;;7.55;3.75;;;-0.40;99.90;;;;;;5031501;28;20594;-86
2023/12/27 03:15:22;;;;;;;8.02;2.83;;;-0.40;99.90;;;;;;5031559;28;20205;-86
2023/12/27 03:17:50;;;;;;;7.30;2.92;;;-0.40;99.90;;;;;;5032336;28;20182;-86
2023/12/27 03:20:17;;;;;;;7.75;3.58;;;-0.40;99.90;;;;;;5032556;28;20668;-87
2023/12/27 03:22:45;;;;;;;8.60;3.22;;;-0.40;99.90;;;;;;5030712;28;20198;-85
2023/12/27 03:25:13;;;;;;;9.73;3.75;;;-0.40;99.90;;;;;;5031958;28;20197;-85
2023/12/27 03:27:40;;;;;;;7.93;3.30;;;-0.40;99.90;;;;;;5055718;28;20205;-87
2023/12/27 03:30:08;;;;;;;5.93;3.33;;;-0.40;99.90;;;;;;5031067;28;20859;-86
2023/12/27 03:32:36;;;;;;;7.68;3.10;;;-0.40;99.90;;;;;;5030709;28;20265;-86
2023/12/27 03:35:04;;;;;;;5.25;2.47;;;-0.40;99.90;;;;;;5032724;28;20196;-86
2023/12/27 03:37:31;;;;;;;4.78;2.30;;;-0.40;99.90;;;;;;5056594;28;20197;-85
2023/12/27 03:39:59;;;;;;;4.75;2.17;;;-0.40;99.90;;;;;;5051795;28;20188;-87
2023/12/27 03:42:26;;;;;;;5.88;2.28;;;-0.30;99.90;;;;;;5050529;28;20193;-86
2023/12/27 03:44:54;;;;;;;5.28;1.88;;;-0.30;99.90;;;;;;5066855;28;20184;-85
2023/12/27 03:47:22;;;;;;;6.07;2.05;;;-0.30;99.90;;;;;;5050005;28;20566;-86
2023/12/27 03:49:49;;;;;;;4.15;1.88;;;-0.30;99.90;;;;;;5051382;28;20181;-85
2023/12/27 03:52:17;;;;;;;6.10;2.20;;;-0.30;99.90;;;;;;5051662;28;20197;-86
2023/12/27 03:54:45;;;;;;;4.22;2.20;;;-0.30;99.90;;;;;;5050112;28;20197;-87
2023/12/27 03:57:13;;;;;;;4.50;2.15;;;-0.30;99.90;;;;;;5050243;28;20213;-85
2023/12/27 03:59:40;;;;;;;5.03;2.40;;;-0.30;99.90;;;;;;5050461;28;20203;-86
2023/12/27 04:02:08;;;;;;;7.13;2.30;;;-0.30;99.90;;;;;;5066430;28;20186;-86
2023/12/27 04:04:38;;;;;;;4.28;2.00;;;-0.40;99.90;;;;;;5066635;28;20331;-86
2023/12/27 04:07:06;;;;;;;5.47;2.40;;;-0.30;99.90;;;;;;5049974;28;20262;-85
2023/12/27 04:09:33;;;;;;;7.70;2.33;;;-0.40;99.90;;;;;;5049729;28;20667;-86
2023/12/27 04:12:01;;;;;;;5.63;2.30;;;-0.40;99.90;;;;;;5049509;28;20590;-86
2023/12/27 04:14:28;;;;;;;7.43;2.28;;;-0.30;99.90;;;;;;5049920;28;20255;-86
2023/12/27 04:16:56;;;;;;;5.03;2.13;;;-0.30;99.90;;;;;;5049613;28;20208;-86
2023/12/27 04:19:23;;;;;;;7.35;2.38;;;-0.40;99.90;;;;;;5049327;28;20185;-86
2023/12/27 04:21:51;;;;;;;4.90;1.90;;;-0.30;99.90;;;;;;5066346;28;20589;-86
2023/12/27 04:24:18;;;;;;;4.38;1.95;;;-0.40;99.90;;;;;;5049825;28;20219;-86
2023/12/27 04:26:46;;;;;;;3.45;2.00;;;-0.30;99.90;;;;;;5066559;28;20201;-86
2023/12/27 04:29:14;;;;;;;4.13;2.00;;;-0.30;99.90;;;;;;5049407;28;20205;-85
2023/12/27 04:31:41;;;;;;;4.25;1.83;;;-0.30;99.90;;;;;;5049474;28;20725;-86
2023/12/27 04:34:09;;;;;;;3.65;1.83;;;-0.30;99.90;;;;;;5049446;28;20614;-86
2023/12/27 04:36:36;;;;;;;2.53;1.42;;;-0.30;99.90;;;;;;5039950;28;20201;-86
2023/12/27 04:39:06;;;;;;;6.25;1.67;;;-0.30;99.90;;;;;;5049351;28;20555;-87
2023/12/27 04:41:34;;;;;;;3.90;1.90;;;-0.30;99.90;;;;;;5037960;28;20224;-86
2023/12/27 04:44:01;;;;;;;4.25;1.58;;;-0.40;99.90;;;;;;5065626;28;20196;-87
2023/12/27 04:46:29;;;;;;;3.22;1.63;;;-0.40;99.90;;;;;;5050673;28;20742;-88
2023/12/27 04:48:56;;;;;;;3.65;1.60;;;-0.40;99.90;;;;;;5049519;28;20197;-85
2023/12/27 04:51:24;;;;;;;2.25;1.50;;;-0.40;99.90;;;;;;5065770;28;20679;-87
2023/12/27 04:53:55;;;;;;;2.90;1.45;;;-0.40;99.90;;;;;;5048990;28;20196;-88
2023/12/27 04:56:23;;;;;;;5.75;1.63;;;-0.40;99.90;;;;;;5048952;28;20181;-87
2023/12/27 04:58:51;;;;;;;3.08;1.50;;;-0.40;99.90;;;;;;5048651;28;20209;-87
2023/12/27 05:01:18;;;;;;;3.33;1.50;;;-0.40;99.90;;;;;;5048665;28;20647;-86
2023/12/27 05:03:46;;;;;;;3.30;1.40;;;-0.40;99.90;;;;;;5049174;28;20365;-86
2023/12/27 05:06:14;;;;;;;3.60;1.52;;;-0.40;99.90;;;;;;5048740;28;20193;-87
2023/12/27 05:08:43;;;;;;;2.50;1.10;;;-0.40;99.90;;;;;;5048794;28;20205;-87
2023/12/27 05:11:15;;;;;;;6.43;1.65;;;-0.50;99.90;;;;;;5048662;28;20216;-87
2023/12/27 05:13:44;;;;;;;2.28;1.20;;;-0.40;99.90;;;;;;5048893;28;20846;-87
2023/12/27 05:16:18;;;;;;;3.25;1.20;;;-0.50;99.90;;;;;;5049853;28;20181;-86
2023/12/27 05:18:45;;;;;;;4.10;1.30;;;-0.40;99.90;;;;;;5048963;28;20189;-86
2023/12/27 05:21:14;;;;;;;2.05;1.15;;;-0.50;99.90;;;;;;5047278;28;20190;-85
2023/12/27 05:23:42;;;;;;;4.93;1.10;;;-0.40;99.90;;;;;;5029965;28;20194;-86
2023/12/27 05:26:10;;;;;;;2.08;1.00;;;-0.50;99.90;;;;;;5030039;28;20687;-86
2023/12/27 05:28:37;;;;;;;1.80;1.20;;;-0.40;99.90;;;;;;5035081;28;20185;-85
2023/12/27 05:31:04;;;;;;;2.25;1.10;;;-0.40;99.90;;;;;;5041525;28;20205;-86
2023/12/27 05:33:32;;;;;;;2.63;1.35;;;-0.50;99.90;;;;;;5030363;28;20174;-87
2023/12/27 05:36:00;;;;;;;3.28;1.00;;;-0.40;99.90;;;;;;5028800;28;20200;-85
2023/12/27 05:38:28;;;;;;;3.17;1.35;;;-0.40;99.90;;;;;;5029033;28;20190;-86
2023/12/27 05:40:55;;;;;;;4.15;1.23;;;-0.40;99.90;;;;;;5028348;28;20194;-85
2023/12/27 05:43:23;;;;;;;1.55;1.10;;;-0.40;99.90;;;;;;5032288;28;20194;-85
2023/12/27 05:45:50;;;;;;;2.40;1.02;;;-0.50;99.90;;;;;;5047699;28;20193;-85
2023/12/27 05:48:18;;;;;;;2.00;0.80;;;-0.40;99.90;;;;;;5049094;28;20189;-86
2023/12/27 05:50:46;;;;;;;1.88;0.93;;;-0.50;99.90;;;;;;5047844;28;20290;-85
2023/12/27 05:53:13;;;;;;;1.70;0.82;;;-0.50;99.90;;;;;;5048057;28;20747;-85
2023/12/27 05:55:41;;;;;;;3.20;1.08;;;-0.50;99.90;;;;;;5048080;28;20251;-85
2023/12/27 05:58:08;;;;;;;2.33;1.10;;;-0.60;99.90;;;;;;5049512;28;20185;-86
2023/12/27 06:00:37;;;;;;;2.58;0.80;;;-0.60;99.90;;;;;;5064563;28;20182;-86
2023/12/27 06:03:05;;;;;;;3.25;0.77;;;-0.60;99.90;;;;;;5049598;28;20184;-86
2023/12/27 06:05:33;;;;;;;2.35;0.77;;;-0.60;99.90;;;;;;5049256;28;20652;-85
2023/12/27 06:08:00;;;;;;;3.85;0.75;;;-0.60;99.90;;;;;;5064428;28;20551;-85
2023/12/27 06:10:28;;;;;;;1.85;0.85;;;-0.60;99.90;;;;;;5064378;28;20935;-85
2023/12/27 06:12:55;;;;;;;1.85;0.82;;;-0.70;99.90;;;;;;5049025;28;20243;-86
2023/12/27 06:15:22;;;;;;;1.13;0.70;;;-0.70;99.90;;;;;;5046066;28;20591;-87
2023/12/27 06:17:50;;;;;;;1.60;0.70;;;-0.70;99.90;;;;;;5030223;28;20236;-85
2023/12/27 06:20:17;;;;;;;2.45;0.88;;;-0.80;99.90;;;;;;5044377;28;20198;-84
2023/12/27 06:22:45;;;;;;;4.28;0.90;;;-0.80;99.90;;;;;;5028238;28;20198;-85
2023/12/27 06:25:13;;;;;;;2.30;0.52;;;-0.90;99.90;;;;;;5033176;28;20291;-85
2023/12/27 06:27:40;;;;;;;3.28;0.70;;;-0.80;99.90;;;;;;5047449;28;20724;-85
2023/12/27 06:30:08;;;;;;;3.42;0.93;;;-0.90;99.90;;;;;;5046945;28;20276;-84
2023/12/27 06:32:36;;;;;;;3.00;0.60;;;-0.90;99.90;;;;;;5064612;28;20756;-87
2023/12/27 06:35:04;;;;;;;2.13;0.68;;;-0.90;99.90;;;;;;5047979;28;20181;-86
2023/12/27 06:37:31;;;;;;;1.30;0.70;;;-0.90;99.90;;;;;;5032629;28;20671;-87
2023/12/27 06:39:59;;;;;;;1.13;0.63;;;-1.00;99.90;;;;;;5049148;28;20188;-87
2023/12/27 06:42:26;;;;;;;0.90;0.70;;;-1.00;99.90;;;;;;5067636;28;20204;-86
2023/12/27 06:44:54;;;;;;;2.67;0.68;;;-1.00;99.90;;;;;;5051388;28;20865;-86
2023/12/27 06:47:21;;;;;;;0.43;0.40;;;-1.10;99.90;;;;;;5068542;28;20687;-86
2023/12/27 06:49:49;;;;;;;2.17;0.95;;;-1.10;99.90;;;;;;5051504;28;20251;-85
2023/12/27 06:52:16;;;;;;;1.33;0.73;;;-1.20;99.90;;;;;;5053645;28;20213;-87
2023/12/27 06:54:44;;;;;;;1.52;0.77;;;-1.20;99.90;;;;;;5053238;28;20667;-86
2023/12/27 06:57:11;;;;;;;2.35;0.95;;;-1.20;99.90;;;;;;5054503;28;20193;-87
2023/12/27 06:59:39;;;;;;;2.13;0.85;;;-1.30;99.90;;;;;;5069058;28;20181;-86
2023/12/27 07:02:07;;;;;;;3.28;1.05;;;-1.30;99.90;;;;;;5053590;28;20292;-87
2023/12/27 07:04:37;;;;;;;1.40;0.80;;;-1.30;99.90;;;;;;5055232;28;20182;-89
2023/12/27 07:07:04;;;;;;;3.38;0.80;;;-1.30;99.90;;;;;;5070702;28;20197;-87
2023/12/27 07:09:32;;;;;;;3.47;1.08;;;-1.30;99.90;;;;;;5054267;28;20286;-87
2023/12/27 07:12:00;;;;;;;1.80;1.00;;;-1.30;99.90;;;;;;5054032;28;20316;-88
2023/12/27 07:14:27;;;;;;;1.08;0.80;;;-1.30;99.90;;;;;;5053849;28;20284;-87
2023/12/27 07:16:55;;;;;;;2.63;1.13;;;-1.30;99.90;;;;;;5053281;28;20193;-86
2023/12/27 07:19:22;;;;;;;2.72;1.02;;;-1.40;99.90;;;;;;5054555;28;20208;-87
2023/12/27 07:21:50;;;;;;;3.65;1.27;;;-1.50;99.90;;;;;;5053538;28;20208;-86
2023/12/27 07:24:17;;;;;;;1.65;0.90;;;-1.40;99.90;;;;;;5054931;28;20189;-87
2023/12/27 07:26:45;;;;;;;2.15;0.90;;;-1.40;99.90;;;;;;5069805;28;20273;-86
2023/12/27 07:29:13;;;;;;;2.92;0.93;;;-1.50;99.90;;;;;;5070086;28;20223;-87
2023/12/27 07:31:40;;;;;;;1.90;1.00;;;-1.50;99.90;;;;;;5053872;28;20214;-87
2023/12/27 07:34:08;;;;;;;2.60;1.17;;;-1.50;99.90;;;;;;5053658;28;20574;-87
2023/12/27 07:36:35;;;;;;;3.40;1.10;;;-1.50;99.90;;;;;;5053794;28;20663;-87
2023/12/27 07:39:06;;;;;;;2.15;0.98;;;-1.50;99.90;;;;;;5054094;28;20754;-88
2023/12/27 07:41:33;;;;;;;1.90;1.10;;;-1.40;99.90;;;;;;5059633;28;20696;-87
2023/12/27 07:44:01;;;;;;;3.53;1.10;;;-1.50;99.90;;;;;;5049660;28;20190;-88
2023/12/27 07:46:28;;;;;;;2.63;1.05;;;-1.50;99.90;;;;;;5050434;28;20194;-88
2023/12/27 07:48:56;;;;;;;3.63;1.27;;;-1.50;99.90;;;;;;5051081;28;20303;-87
2023/12/27 07:51:24;;;;;;;4.68;1.58;;;-1.50;99.90;;;;;;5033717;28;21014;-88
2023/12/27 07:53:51;;;;;;;2.72;1.15;;;-1.50;99.90;;;;;;5016136;28;20273;-87
2023/12/27 07:56:18;;;;;;;2.90;1.27;;;-1.40;99.90;;;;;;5051084;28;20217;-88
2023/12/27 07:58:47;;;;;;;5.05;1.55;;;-1.50;99.90;;;;;;5054653;28;20627;-87
2023/12/27 08:01:16;;;;;;;2.05;1.10;;;-1.50;99.90;;;;;;5046062;28;20601;-89
2023/12/27 08:03:49;;;;;;;3.35;1.42;;;-1.50;99.90;;;;;;5051202;28;20196;-88
2023/12/27 08:06:17;;;;;;;4.28;1.60;;;-1.50;99.90;;;;;;5033373;28;20281;-89
2023/12/27 08:08:46;;;;;;;2.65;1.30;;;-1.50;99.90;;;;;;5035638;28;20186;-89
2023/12/27 08:11:13;;;;;;;5.85;1.65;;;-1.50;99.90;;;;;;5033839;28;20190;-88
2023/12/27 08:13:41;;;;;;;4.10;1.73;;;-1.50;99.90;;;;;;5033999;28;20182;-89
2023/12/27 08:16:08;;;;;;;4.03;1.40;;;-1.50;99.90;;;;;;5034461;28;20206;-88
2023/12/27 08:18:37;;;;;;;5.10;1.50;;;-1.50;99.90;;;;;;5034253;28;20660;-88
2023/12/27 08:21:10;;;;;;;2.30;1.20;;;-1.50;99.90;;;;;;5034008;28;20197;-86
2023/12/27 08:23:37;;;;;;;2.45;1.20;;;-1.60;99.90;;;;;;5034276;28;20204;-89
2023/12/27 08:26:06;;;;;;;4.57;1.58;;;-1.50;99.90;;;;;;5050637;28;20170;-89
2023/12/27 08:28:35;;;;;;;8.23;1.83;;;-1.70;99.90;;;;;;5042259;28;20268;-90
2023/12/27 08:31:04;;;;;;;3.80;1.42;;;-1.60;99.90;;;;;;5034495;28;20197;-89
2023/12/27 08:33:35;;;;;;;4.10;1.35;;;-1.60;99.90;;;;;;5049823;28;20196;-87
2023/12/27 08:36:03;;;;;;;1.67;1.00;;;-1.60;99.90;;;;;;5049686;28;20197;-89
2023/12/27 08:38:33;;;;;;;3.45;1.40;;;-1.60;99.90;;;;;;5032922;28;20260;-86
2023/12/27 08:41:02;;;;;;;2.85;1.10;;;-1.60;99.90;;;;;;5049288;28;20684;-88
2023/12/27 08:43:30;;;;;;;4.22;1.40;;;-1.60;99.90;;;;;;5048782;28;20190;-87
2023/12/27 08:45:58;;;;;;;5.05;1.60;;;-1.60;99.90;;;;;;5048626;28;20186;-89
2023/12/27 08:48:25;;;;;;;4.47;1.60;;;-1.60;99.90;;;;;;5049227;28;20232;-87
2023/12/27 08:50:53;;;;;;;4.78;1.60;;;-1.60;99.90;;;;;;5033636;28;20239;-87
2023/12/27 08:53:21;;;;;;;6.07;1.85;;;-1.60;99.90;;;;;;5048595;28;20216;-87
2023/12/27 08:55:48;;;;;;;5.45;1.67;;;-1.50;99.90;;;;;;5048690;28;20190;-88
2023/12/27 08:58:16;;;;;;;5.55;1.90;;;-1.60;99.90;;;;;;5032842;28;20186;-87
2023/12/27 09:00:43;;;;;;;5.05;1.50;;;-1.50;99.90;;;;;;5049480;28;20194;-87
2023/12/27 09:03:10;;;;;;;7.07;1.63;;;-1.50;99.90;;;;;;5032259;28;20182;-89
2023/12/27 09:05:39;;;;;;;2.90;1.20;;;-1.50;99.90;;;;;;5043892;28;20224;-90
2023/12/27 09:08:07;;;;;;;5.30;1.50;;;-1.50;99.90;;;;;;5067993;28;20679;-90
2023/12/27 09:10:35;;;;;;;3.42;1.60;;;-1.50;99.90;;;;;;5053344;28;20243;-89
2023/12/27 09:13:03;;;;;;;3.47;1.70;;;-1.40;99.90;;;;;;5052524;28;20222;-88
2023/12/27 09:15:31;;;;;;;4.22;1.65;;;-1.40;99.90;;;;;;5049733;28;20252;-88
2023/12/27 09:17:58;;;;;;;3.90;1.50;;;-1.40;99.90;;;;;;5032883;28;20186;-88
2023/12/27 09:20:27;;;;;;;2.35;1.30;;;-1.30;99.90;;;;;;5033041;28;20186;-87
2023/12/27 09:22:54;;;;;;;3.35;1.60;;;-1.30;99.90;;;;;;5032931;28;20557;-88
2023/12/27 09:25:22;;;;;;;4.03;1.95;;;-1.20;99.90;;;;;;5033252;28;20189;-88
2023/12/27 09:27:49;;;;;;;4.90;1.95;;;-1.20;99.90;;;;;;5033191;28;20660;-88
2023/12/27 09:30:17;;;;;;;4.05;2.10;;;-1.20;99.90;;;;;;5049531;28;20281;-88
2023/12/27 09:32:44;;;;;;;5.90;2.28;;;-1.10;99.90;;;;;;5034038;28;20734;-88
2023/12/27 09:35:12;;;;;;;6.05;1.83;;;-1.00;99.90;;;;;;5032927;28;20185;-88
2023/12/27 09:37:40;;;;;;;5.97;2.30;;;-1.00;99.90;;;;;;5034044;28;20185;-88
2023/12/27 09:40:08;;;;;;;4.47;2.30;;;-1.00;99.90;;;;;;5049100;28;20240;-88
2023/12/27 09:42:39;;;;;;;3.15;1.60;;;-0.90;99.90;;;;;;5033205;28;20185;-88
2023/12/27 09:45:11;;;;;;;4.38;2.35;;;-0.90;99.90;;;;;;5049381;28;20198;-88
2023/12/27 09:47:40;;;;;;;6.38;1.85;;;-0.90;99.90;;;;;;5049497;28;20640;-88
2023/12/27 09:50:08;;;;;;;5.25;1.83;;;-0.90;99.90;;;;;;5044000;28;20185;-88
2023/12/27 09:52:39;;;;;;;3.60;1.70;;;-0.90;99.90;;;;;;5052367;28;20229;-88
2023/12/27 09:55:07;;;;;;;3.40;2.00;;;-0.90;99.90;;;;;;5053893;28;20189;-88
2023/12/27 09:57:35;;;;;;;4.93;2.13;;;-0.80;99.90;;;;;;5069095;28;20181;-88
2023/12/27 10:00:05;;;;;;;4.75;2.00;;;-0.80;99.90;;;;;;5052128;28;20185;-89
2023/12/27 10:02:35;;;;;;;4.40;1.90;;;-0.70;99.90;;;;;;5051717;28;20267;-89
2023/12/27 10:05:15;;;;;;;10.50;1.70;;;-0.70;99.90;;;;;;5069204;28;20201;-88
2023/12/27 10:07:43;;;;;;;5.72;1.75;;;-0.60;99.90;;;;;;5037037;28;20193;-89
2023/12/27 10:10:11;;;;;;;5.05;1.67;;;-0.70;99.90;;;;;;5033847;28;20216;-89
2023/12/27 10:12:55;;;;;;;6.10;2.05;;;-0.60;99.90;;;;;;5032116;28;20241;-89
2023/12/27 10:15:22;;;;;;;4.57;1.75;;;-0.60;99.90;;;;;;5032331;28;20283;-90
2023/12/27 10:17:50;;;;;;;3.38;1.55;;;-0.50;99.90;;;;;;5036559;28;20538;-89
2023/12/27 10:20:32;;;;;;;2.65;1.60;;;-0.50;99.90;;;;;;5036307;28;20178;-89
2023/12/27 10:23:01;;;;;;;3.88;1.40;;;-0.50;99.90;;;;;;5051214;28;20730;-89
2023/12/27 10:25:29;;;;;;;3.35;1.77;;;-0.50;99.90;;;;;;5068680;28;20284;-89
2023/12/27 10:27:57;;;;;;;2.92;1.70;;;-0.50;99.90;;;;;;5052483;28;20190;-88
2023/12/27 10:30:25;;;;;;;4.38;1.50;;;-0.40;99.90;;;;;;5069069;28;20304;-89
2023/12/27 10:33:00;;;;;;;2.45;1.42;;;-0.40;99.90;;;;;;5037520;28;20267;-89
2023/12/27 10:35:35;;;;;;;2.85;1.70;;;-0.40;99.90;;;;;;5036197;28;20189;-88
2023/12/27 10:38:04;;;;;;;4.38;1.80;;;-0.40;99.90;;;;;;5056038;28;20264;-88
2023/12/27 10:40:34;;;;;;;4.90;1.70;;;-0.40;99.90;;;;;;5051032;28;20543;-87
2023/12/27 10:43:02;;;;;;;7.95;2.28;;;-0.40;99.90;;;;;;5051482;28;20193;-88
2023/12/27 10:45:30;;;;;;;4.35;1.80;;;-0.30;99.90;;;;;;5068392;28;20190;-87
2023/12/27 10:48:04;;;;;;;4.55;1.70;;;-0.40;99.90;;;;;;5033559;28;20240;-87
2023/12/27 10:50:34;;;;;;;5.10;1.65;;;-0.40;99.90;;;;;;5041902;28;20652;-88
2023/12/27 10:53:06;;;;;;;3.42;1.75;;;-0.40;99.90;;;;;;5033781;28;20574;-87
2023/12/27 10:55:36;;;;;;;6.25;2.00;;;-0.40;99.90;;;;;;5034037;28;20181;-90
2023/12/27 10:58:15;;;;;;;4.97;2.03;;;-0.40;99.90;;;;;;5035373;28;20593;-87
2023/12/27 11:00:44;;;;;;;5.35;1.95;;;-0.40;99.90;;;;;;5037525;28;20198;-88
2023/12/27 11:03:13;;;;;;;4.43;1.80;;;-0.30;99.90;;;;;;5037268;28;20200;-88
2023/12/27 11:05:41;;;;;;;4.55;1.63;;;-0.40;99.90;;;;;;5047211;28;20185;-90
2023/12/27 11:08:12;;;;;;;3.28;1.42;;;-0.30;99.90;;;;;;5048566;28;20671;-88
2023/12/27 11:10:44;;;;;;;7.90;2.30;;;-0.40;99.90;;;;;;5059959;28;20209;-89
2023/12/27 11:13:15;;;;;;;3.95;1.70;;;-0.30;99.90;;;;;;5036160;28;20648;-87
2023/12/27 11:15:45;;;;;;;5.40;2.05;;;-0.40;99.90;;;;;;5056912;28;20716;-88
2023/12/27 11:18:13;;;;;;;6.60;1.50;;;-0.40;99.90;;;;;;5061078;28;20189;-87
2023/12/27 11:20:41;;;;;;;6.28;2.03;;;-0.40;99.90;;;;;;5059695;28;20193;-88
2023/12/27 11:23:09;;;;;;;6.35;2.47;;;-0.40;99.90;;;;;;5054166;28;20193;-89
2023/12/27 11:25:37;;;;;;;3.60;1.50;;;-0.40;99.90;;;;;;5054981;28;20217;-88
2023/12/27 11:28:05;;;;;;;4.00;1.80;;;-0.40;99.90;;;;;;5048575;28;20185;-88
2023/12/27 11:30:33;;;;;;;7.75;2.00;;;-0.50;99.90;;;;;;5034231;28;20644;-86
2023/12/27 11:33:01;;;;;;;6.78;1.67;;;-0.50;99.90;;;;;;5033052;28;20206;-88
2023/12/27 11:35:32;;;;;;;4.22;1.65;;;-0.50;99.90;;;;;;5032771;28;20194;-87
2023/12/27 11:38:21;;;;;;;4.22;1.85;;;-0.50;99.90;;;;;;5049039;28;20162;-87
2023/12/27 11:40:51;;;;;;;6.20;2.17;;;-0.50;99.90;;;;;;5033375;28;20239;-86
2023/12/27 11:43:23;;;;;;;5.63;1.63;;;-0.50;99.90;;;;;;5034466;28;20617;-86
2023/12/27 11:46:06;;;;;;;5.22;1.48;;;-0.50;99.90;;;;;;5033722;28;20192;-86
2023/12/27 11:48:37;;;;;;;3.08;1.65;;;-0.40;99.90;;;;;;5049450;28;20663;-85
2023/12/27 11:51:28;;;;;;;5.47;1.77;;;-0.40;99.90;;;;;;5036431;28;20178;-87
2023/12/27 11:53:59;;;;;;;3.03;1.40;;;-0.50;99.90;;;;;;5033797;28;20676;-86
2023/12/27 11:56:35;;;;;;;2.90;1.38;;;-0.40;99.90;;;;;;5038255;28;20679;-86
2023/12/27 11:59:07;;;;;;;3.92;1.60;;;-0.40;99.90;;;;;;5048408;28;20182;-86
2023/12/27 12:01:37;;;;;;;2.28;1.40;;;-0.40;99.90;;;;;;5056525;28;20188;-86
2023/12/27 12:04:10;;;;;;;3.92;1.73;;;-0.40;99.90;;;;;;5053693;28;20193;-86
2023/12/27 12:07:14;;;;;;;3.13;1.48;;;-0.40;99.90;;;;;;5052006;28;20247;-85
2023/12/27 12:09:44;;;;;;;2.75;1.23;;;-0.40;99.90;;;;;;5069147;28;20178;-86
2023/12/27 12:12:16;;;;;;;4.15;1.20;;;-0.40;99.90;;;;;;5051859;28;20229;-86
2023/12/27 12:14:44;;;;;;;3.85;1.20;;;-0.30;99.90;;;;;;5068651;28;20203;-86
2023/12/27 12:17:15;;;;;;;3.28;1.17;;;-0.30;99.90;;;;;;5051645;28;20276;-86
2023/12/27 12:19:43;;;;;;;2.58;1.25;;;-0.30;99.90;;;;;;5053234;28;20168;-86
2023/12/27 12:22:13;;;;;;;4.88;1.30;;;-0.30;99.90;;;;;;5054634;28;20216;-88
2023/12/27 12:24:41;;;;;;;6.97;1.20;;;-0.40;99.90;;;;;;5036800;28;20198;-87
2023/12/27 12:27:10;;;;;;;3.33;1.48;;;-0.40;99.90;;;;;;5034467;28;20202;-88
2023/12/27 12:29:37;;;;;;;3.58;1.05;;;-0.40;99.90;;;;;;5050259;28;20186;-89
2023/12/27 12:32:06;;;;;;;2.10;0.93;;;-0.40;99.90;;;;;;5053995;28;20234;-89
2023/12/27 12:34:33;;;;;;;3.92;1.35;;;-0.40;99.90;;;;;;5053725;28;20181;-88
2023/12/27 12:37:01;;;;;;;3.13;0.90;;;-0.40;99.90;;;;;;5053625;28;20193;-88
2023/12/27 12:39:29;;;;;;;2.10;1.02;;;-0.40;99.90;;;;;;5046302;28;20678;-87
2023/12/27 12:41:58;;;;;;;1.98;1.00;;;-0.40;99.90;;;;;;5049783;28;20209;-88
2023/12/27 12:44:25;;;;;;;2.97;0.95;;;-0.30;99.90;;;;;;5052574;28;20254;-88
2023/12/27 12:46:56;;;;;;;3.42;0.60;;;-0.30;99.90;;;;;;5053343;28;20671;-88
2023/12/27 12:49:24;;;;;;;1.48;0.82;;;-0.30;99.90;;;;;;5051391;28;20211;-87
2023/12/27 12:51:53;;;;;;;1.42;0.68;;;-0.30;99.90;;;;;;5067586;28;20643;-89